sensor_id;sensor_type;location;lat;lon;timestamp;P1;durP1;ratioP1;P2;durP2;ratioP2
42886;SDS011;29032;56.028;92.904;2023-01-15T00:04:49;3.23;;;1.90;;
42886;SDS011;29032;56.028;92.904;2023-01-15T00:09:53;4.80;;;2.17;;
42886;SDS011;29032;56.028;92.904;2023-01-15T00:14:55;5.73;;;2.40;;
42886;SDS011;29032;56.028;92.904;2023-01-15T00:19:57;4.03;;;2.53;;
42886;SDS011;29032;56.028;92.904;2023-01-15T00:25:01;3.07;;;1.83;;
42886;SDS011;29032;56.028;92.904;2023-01-15T00:30:06;6.83;;;2.77;;
42886;SDS011;29032;56.028;92.904;2023-01-15T00:35:12;4.65;;;2.40;;
42886;SDS011;29032;56.028;92.904;2023-01-15T00:40:18;3.97;;;2.23;;
42886;SDS011;29032;56.028;92.904;2023-01-15T00:45:20;5.93;;;2.40;;
42886;SDS011;29032;56.028;92.904;2023-01-15T00:50:22;4.07;;;2.00;;
42886;SDS011;29032;56.028;92.904;2023-01-15T00:55:26;7.10;;;2.60;;
42886;SDS011;29032;56.028;92.904;2023-01-15T01:00:28;5.47;;;2.60;;
42886;SDS011;29032;56.028;92.904;2023-01-15T01:05:33;5.33;;;3.07;;
42886;SDS011;29032;56.028;92.904;2023-01-15T01:10:43;5.53;;;2.60;;
42886;SDS011;29032;56.028;92.904;2023-01-15T01:15:46;4.50;;;2.30;;
42886;SDS011;29032;56.028;92.904;2023-01-15T01:20:48;3.37;;;2.13;;
42886;SDS011;29032;56.028;92.904;2023-01-15T01:25:52;5.23;;;2.97;;
42886;SDS011;29032;56.028;92.904;2023-01-15T01:30:54;6.03;;;3.23;;
42886;SDS011;29032;56.028;92.904;2023-01-15T01:35:56;6.77;;;3.40;;
42886;SDS011;29032;56.028;92.904;2023-01-15T01:40:59;8.00;;;3.73;;
42886;SDS011;29032;56.028;92.904;2023-01-15T01:46:02;7.33;;;3.37;;
42886;SDS011;29032;56.028;92.904;2023-01-15T01:51:04;8.17;;;3.70;;
42886;SDS011;29032;56.028;92.904;2023-01-15T01:56:08;5.33;;;2.70;;
42886;SDS011;29032;56.028;92.904;2023-01-15T02:01:12;8.77;;;3.27;;
42886;SDS011;29032;56.028;92.904;2023-01-15T02:06:14;7.10;;;3.37;;
42886;SDS011;29032;56.028;92.904;2023-01-15T02:11:20;5.13;;;2.70;;
42886;SDS011;29032;56.028;92.904;2023-01-15T02:16:25;13.73;;;3.70;;
42886;SDS011;29032;56.028;92.904;2023-01-15T02:21:39;10.13;;;3.87;;
42886;SDS011;29032;56.028;92.904;2023-01-15T02:32:22;11.17;;;3.43;;
42886;SDS011;29032;56.028;92.904;2023-01-15T02:37:31;5.80;;;3.27;;
42886;SDS011;29032;56.028;92.904;2023-01-15T02:42:40;4.93;;;2.80;;
42886;SDS011;29032;56.028;92.904;2023-01-15T02:47:55;7.37;;;3.47;;
42886;SDS011;29032;56.028;92.904;2023-01-15T02:53:04;7.87;;;3.50;;
42886;SDS011;29032;56.028;92.904;2023-01-15T02:58:15;6.87;;;3.80;;
42886;SDS011;29032;56.028;92.904;2023-01-15T03:03:23;12.00;;;3.77;;
42886;SDS011;29032;56.028;92.904;2023-01-15T03:08:36;4.97;;;2.77;;
42886;SDS011;29032;56.028;92.904;2023-01-15T03:13:43;5.88;;;2.88;;
42886;SDS011;29032;56.028;92.904;2023-01-15T03:18:50;8.30;;;4.30;;
42886;SDS011;29032;56.028;92.904;2023-01-15T03:23:56;6.78;;;3.47;;
42886;SDS011;29032;56.028;92.904;2023-01-15T03:29:03;4.53;;;2.70;;
42886;SDS011;29032;56.028;92.904;2023-01-15T03:34:08;7.13;;;3.15;;
42886;SDS011;29032;56.028;92.904;2023-01-15T03:39:11;6.50;;;3.00;;
42886;SDS011;29032;56.028;92.904;2023-01-15T03:44:26;9.80;;;3.47;;
42886;SDS011;29032;56.028;92.904;2023-01-15T03:55:01;11.67;;;4.23;;
42886;SDS011;29032;56.028;92.904;2023-01-15T04:00:14;13.10;;;5.40;;
42886;SDS011;29032;56.028;92.904;2023-01-15T04:05:25;11.37;;;4.33;;
42886;SDS011;29032;56.028;92.904;2023-01-15T04:10:30;12.83;;;3.93;;
42886;SDS011;29032;56.028;92.904;2023-01-15T04:15:35;14.67;;;5.00;;
42886;SDS011;29032;56.028;92.904;2023-01-15T04:20:39;8.77;;;3.77;;
42886;SDS011;29032;56.028;92.904;2023-01-15T04:25:42;8.97;;;3.83;;
42886;SDS011;29032;56.028;92.904;2023-01-15T04:30:46;10.83;;;3.97;;
42886;SDS011;29032;56.028;92.904;2023-01-15T04:35:48;8.90;;;3.53;;
42886;SDS011;29032;56.028;92.904;2023-01-15T04:40:51;8.23;;;4.10;;
42886;SDS011;29032;56.028;92.904;2023-01-15T04:45:54;7.50;;;2.90;;
42886;SDS011;29032;56.028;92.904;2023-01-15T04:50:56;7.97;;;3.87;;
42886;SDS011;29032;56.028;92.904;2023-01-15T04:56:03;7.50;;;3.37;;
42886;SDS011;29032;56.028;92.904;2023-01-15T05:01:10;9.70;;;3.80;;
42886;SDS011;29032;56.028;92.904;2023-01-15T05:06:13;10.40;;;3.50;;
42886;SDS011;29032;56.028;92.904;2023-01-15T05:11:16;6.27;;;3.00;;
42886;SDS011;29032;56.028;92.904;2023-01-15T05:16:20;7.33;;;3.10;;
42886;SDS011;29032;56.028;92.904;2023-01-15T05:21:23;7.80;;;3.40;;
42886;SDS011;29032;56.028;92.904;2023-01-15T05:26:27;6.87;;;2.87;;
42886;SDS011;29032;56.028;92.904;2023-01-15T05:31:32;6.70;;;3.00;;
42886;SDS011;29032;56.028;92.904;2023-01-15T05:36:34;8.20;;;3.50;;
42886;SDS011;29032;56.028;92.904;2023-01-15T05:41:36;14.03;;;5.40;;
42886;SDS011;29032;56.028;92.904;2023-01-15T05:46:41;7.23;;;3.83;;
42886;SDS011;29032;56.028;92.904;2023-01-15T05:51:44;8.83;;;3.70;;
42886;SDS011;29032;56.028;92.904;2023-01-15T05:56:53;8.50;;;4.47;;
42886;SDS011;29032;56.028;92.904;2023-01-15T06:01:57;8.33;;;3.33;;
42886;SDS011;29032;56.028;92.904;2023-01-15T06:06:59;8.60;;;3.87;;
42886;SDS011;29032;56.028;92.904;2023-01-15T06:12:01;9.80;;;3.77;;
42886;SDS011;29032;56.028;92.904;2023-01-15T06:17:04;10.20;;;4.03;;
42886;SDS011;29032;56.028;92.904;2023-01-15T06:22:07;9.40;;;3.70;;
42886;SDS011;29032;56.028;92.904;2023-01-15T06:27:09;9.13;;;3.70;;
42886;SDS011;29032;56.028;92.904;2023-01-15T06:32:12;11.23;;;3.93;;
42886;SDS011;29032;56.028;92.904;2023-01-15T06:37:15;7.27;;;3.57;;
42886;SDS011;29032;56.028;92.904;2023-01-15T06:42:17;11.57;;;4.17;;
42886;SDS011;29032;56.028;92.904;2023-01-15T06:47:32;9.10;;;4.73;;
42886;SDS011;29032;56.028;92.904;2023-01-15T06:52:34;14.37;;;4.60;;
42886;SDS011;29032;56.028;92.904;2023-01-15T06:57:37;14.33;;;3.57;;
42886;SDS011;29032;56.028;92.904;2023-01-15T07:02:40;8.40;;;3.70;;
42886;SDS011;29032;56.028;92.904;2023-01-15T07:07:43;9.87;;;3.73;;
42886;SDS011;29032;56.028;92.904;2023-01-15T07:12:45;9.33;;;3.40;;
42886;SDS011;29032;56.028;92.904;2023-01-15T07:17:48;7.23;;;3.03;;
42886;SDS011;29032;56.028;92.904;2023-01-15T07:22:55;7.90;;;3.30;;
42886;SDS011;29032;56.028;92.904;2023-01-15T07:27:57;7.20;;;2.67;;
42886;SDS011;29032;56.028;92.904;2023-01-15T07:33:00;7.60;;;2.90;;
42886;SDS011;29032;56.028;92.904;2023-01-15T07:38:02;8.90;;;4.20;;
42886;SDS011;29032;56.028;92.904;2023-01-15T07:43:05;10.53;;;4.00;;
42886;SDS011;29032;56.028;92.904;2023-01-15T07:48:09;6.10;;;3.23;;
42886;SDS011;29032;56.028;92.904;2023-01-15T07:53:11;7.17;;;3.53;;
42886;SDS011;29032;56.028;92.904;2023-01-15T07:58:13;9.20;;;4.23;;
42886;SDS011;29032;56.028;92.904;2023-01-15T08:03:17;10.57;;;4.07;;
42886;SDS011;29032;56.028;92.904;2023-01-15T08:08:19;8.97;;;3.70;;
42886;SDS011;29032;56.028;92.904;2023-01-15T08:13:22;7.30;;;3.10;;
42886;SDS011;29032;56.028;92.904;2023-01-15T08:18:26;8.97;;;3.37;;
42886;SDS011;29032;56.028;92.904;2023-01-15T08:23:28;9.93;;;4.30;;
42886;SDS011;29032;56.028;92.904;2023-01-15T08:28:30;11.30;;;4.27;;
42886;SDS011;29032;56.028;92.904;2023-01-15T08:33:34;8.33;;;4.37;;
42886;SDS011;29032;56.028;92.904;2023-01-15T08:38:36;7.97;;;3.27;;
42886;SDS011;29032;56.028;92.904;2023-01-15T08:43:38;11.47;;;4.33;;
42886;SDS011;29032;56.028;92.904;2023-01-15T08:48:42;11.53;;;3.43;;
42886;SDS011;29032;56.028;92.904;2023-01-15T08:53:44;7.67;;;2.93;;
42886;SDS011;29032;56.028;92.904;2023-01-15T08:58:46;12.83;;;4.00;;
42886;SDS011;29032;56.028;92.904;2023-01-15T09:03:50;7.60;;;4.47;;
42886;SDS011;29032;56.028;92.904;2023-01-15T09:08:52;11.83;;;4.97;;
42886;SDS011;29032;56.028;92.904;2023-01-15T09:13:54;9.83;;;4.10;;
42886;SDS011;29032;56.028;92.904;2023-01-15T09:19:04;16.30;;;4.67;;
42886;SDS011;29032;56.028;92.904;2023-01-15T09:24:07;14.57;;;4.67;;
42886;SDS011;29032;56.028;92.904;2023-01-15T09:29:09;11.90;;;5.70;;
42886;SDS011;29032;56.028;92.904;2023-01-15T09:34:13;14.30;;;5.60;;
42886;SDS011;29032;56.028;92.904;2023-01-15T09:39:16;14.77;;;5.80;;
42886;SDS011;29032;56.028;92.904;2023-01-15T09:44:20;13.13;;;5.40;;
42886;SDS011;29032;56.028;92.904;2023-01-15T09:49:36;10.70;;;4.90;;
42886;SDS011;29032;56.028;92.904;2023-01-15T09:54:56;12.97;;;4.83;;
42886;SDS011;29032;56.028;92.904;2023-01-15T10:00:05;7.90;;;4.00;;
42886;SDS011;29032;56.028;92.904;2023-01-15T10:05:16;13.37;;;4.67;;
42886;SDS011;29032;56.028;92.904;2023-01-15T10:10:23;11.37;;;5.07;;
42886;SDS011;29032;56.028;92.904;2023-01-15T10:15:34;8.53;;;4.00;;
42886;SDS011;29032;56.028;92.904;2023-01-15T10:26:22;12.63;;;5.53;;
42886;SDS011;29032;56.028;92.904;2023-01-15T10:31:35;12.03;;;5.10;;
42886;SDS011;29032;56.028;92.904;2023-01-15T10:37:00;13.03;;;5.57;;
42886;SDS011;29032;56.028;92.904;2023-01-15T10:42:11;11.17;;;5.23;;
42886;SDS011;29032;56.028;92.904;2023-01-15T10:47:28;11.27;;;5.30;;
42886;SDS011;29032;56.028;92.904;2023-01-15T10:52:36;11.03;;;5.00;;
42886;SDS011;29032;56.028;92.904;2023-01-15T10:57:48;14.60;;;5.23;;
42886;SDS011;29032;56.028;92.904;2023-01-15T11:02:59;10.67;;;4.10;;
42886;SDS011;29032;56.028;92.904;2023-01-15T11:08:05;12.37;;;5.43;;
42886;SDS011;29032;56.028;92.904;2023-01-15T11:13:16;9.63;;;5.27;;
42886;SDS011;29032;56.028;92.904;2023-01-15T11:18:22;9.50;;;4.23;;
42886;SDS011;29032;56.028;92.904;2023-01-15T11:23:33;17.35;;;7.40;;
42886;SDS011;29032;56.028;92.904;2023-01-15T11:28:36;15.40;;;6.83;;
42886;SDS011;29032;56.028;92.904;2023-01-15T11:33:42;17.00;;;5.90;;
42886;SDS011;29032;56.028;92.904;2023-01-15T11:38:48;14.73;;;5.57;;
42886;SDS011;29032;56.028;92.904;2023-01-15T11:43:55;15.07;;;5.70;;
42886;SDS011;29032;56.028;92.904;2023-01-15T11:48:58;17.93;;;6.07;;
42886;SDS011;29032;56.028;92.904;2023-01-15T11:54:02;15.90;;;5.80;;
42886;SDS011;29032;56.028;92.904;2023-01-15T11:59:08;10.00;;;3.83;;
42886;SDS011;29032;56.028;92.904;2023-01-15T12:04:23;11.53;;;4.47;;
42886;SDS011;29032;56.028;92.904;2023-01-15T12:09:34;12.83;;;5.53;;
42886;SDS011;29032;56.028;92.904;2023-01-15T12:14:58;12.77;;;4.97;;
42886;SDS011;29032;56.028;92.904;2023-01-15T12:20:15;15.60;;;6.13;;
42886;SDS011;29032;56.028;92.904;2023-01-15T12:25:37;11.17;;;4.93;;
42886;SDS011;29032;56.028;92.904;2023-01-15T12:30:52;16.90;;;4.70;;
42886;SDS011;29032;56.028;92.904;2023-01-15T12:36:01;14.00;;;5.37;;
42886;SDS011;29032;56.028;92.904;2023-01-15T12:41:10;16.80;;;6.13;;
42886;SDS011;29032;56.028;92.904;2023-01-15T12:46:16;15.50;;;6.28;;
42886;SDS011;29032;56.028;92.904;2023-01-15T12:51:22;15.03;;;6.83;;
42886;SDS011;29032;56.028;92.904;2023-01-15T12:56:32;18.77;;;5.87;;
42886;SDS011;29032;56.028;92.904;2023-01-15T13:01:47;12.90;;;5.07;;
42886;SDS011;29032;56.028;92.904;2023-01-15T13:06:57;15.07;;;5.03;;
42886;SDS011;29032;56.028;92.904;2023-01-15T13:12:10;12.27;;;5.33;;
42886;SDS011;29032;56.028;92.904;2023-01-15T13:17:16;10.37;;;5.13;;
42886;SDS011;29032;56.028;92.904;2023-01-15T13:22:25;14.37;;;5.60;;
42886;SDS011;29032;56.028;92.904;2023-01-15T13:27:36;12.93;;;5.63;;
42886;SDS011;29032;56.028;92.904;2023-01-15T13:32:51;12.93;;;5.30;;
42886;SDS011;29032;56.028;92.904;2023-01-15T13:37:59;14.83;;;4.97;;
42886;SDS011;29032;56.028;92.904;2023-01-15T13:43:05;11.13;;;4.83;;
42886;SDS011;29032;56.028;92.904;2023-01-15T13:48:11;12.38;;;5.63;;
42886;SDS011;29032;56.028;92.904;2023-01-15T13:53:22;9.80;;;4.43;;
42886;SDS011;29032;56.028;92.904;2023-01-15T13:58:30;14.50;;;4.97;;
42886;SDS011;29032;56.028;92.904;2023-01-15T14:03:33;11.77;;;4.17;;
42886;SDS011;29032;56.028;92.904;2023-01-15T14:08:38;14.13;;;4.47;;
42886;SDS011;29032;56.028;92.904;2023-01-15T14:13:52;11.80;;;4.20;;
42886;SDS011;29032;56.028;92.904;2023-01-15T14:19:18;11.17;;;3.87;;
42886;SDS011;29032;56.028;92.904;2023-01-15T14:24:42;15.83;;;4.17;;
42886;SDS011;29032;56.028;92.904;2023-01-15T14:30:08;11.57;;;4.00;;
42886;SDS011;29032;56.028;92.904;2023-01-15T14:35:34;9.93;;;3.97;;
42886;SDS011;29032;56.028;92.904;2023-01-15T14:40:48;13.63;;;4.77;;
42886;SDS011;29032;56.028;92.904;2023-01-15T14:45:56;14.47;;;5.37;;
42886;SDS011;29032;56.028;92.904;2023-01-15T14:51:16;8.57;;;4.23;;
42886;SDS011;29032;56.028;92.904;2023-01-15T15:01:31;9.07;;;4.40;;
42886;SDS011;29032;56.028;92.904;2023-01-15T15:06:39;9.20;;;4.70;;
42886;SDS011;29032;56.028;92.904;2023-01-15T15:11:47;13.43;;;5.47;;
42886;SDS011;29032;56.028;92.904;2023-01-15T15:16:51;11.77;;;4.70;;
42886;SDS011;29032;56.028;92.904;2023-01-15T15:21:57;14.87;;;4.40;;
42886;SDS011;29032;56.028;92.904;2023-01-15T15:27:13;10.63;;;4.67;;
42886;SDS011;29032;56.028;92.904;2023-01-15T15:32:17;9.23;;;4.70;;
42886;SDS011;29032;56.028;92.904;2023-01-15T15:37:22;12.10;;;4.50;;
42886;SDS011;29032;56.028;92.904;2023-01-15T15:42:26;15.57;;;5.50;;
42886;SDS011;29032;56.028;92.904;2023-01-15T15:47:36;12.23;;;4.72;;
42886;SDS011;29032;56.028;92.904;2023-01-15T15:52:42;10.90;;;4.68;;
42886;SDS011;29032;56.028;92.904;2023-01-15T15:57:45;13.13;;;5.67;;
42886;SDS011;29032;56.028;92.904;2023-01-15T16:02:51;13.87;;;4.53;;
42886;SDS011;29032;56.028;92.904;2023-01-15T16:07:54;16.67;;;5.97;;
42886;SDS011;29032;56.028;92.904;2023-01-15T16:12:57;16.33;;;5.87;;
42886;SDS011;29032;56.028;92.904;2023-01-15T16:18:03;17.27;;;6.10;;
42886;SDS011;29032;56.028;92.904;2023-01-15T16:23:17;18.40;;;7.10;;
42886;SDS011;29032;56.028;92.904;2023-01-15T16:28:21;21.20;;;6.57;;
42886;SDS011;29032;56.028;92.904;2023-01-15T16:34:00;16.13;;;5.63;;
42886;SDS011;29032;56.028;92.904;2023-01-15T16:39:03;12.07;;;4.97;;
42886;SDS011;29032;56.028;92.904;2023-01-15T16:44:07;16.13;;;5.30;;
42886;SDS011;29032;56.028;92.904;2023-01-15T16:49:27;12.30;;;5.57;;
42886;SDS011;29032;56.028;92.904;2023-01-15T16:54:43;13.17;;;5.27;;
42886;SDS011;29032;56.028;92.904;2023-01-15T16:59:56;10.47;;;4.93;;
42886;SDS011;29032;56.028;92.904;2023-01-15T17:05:01;12.40;;;4.67;;
42886;SDS011;29032;56.028;92.904;2023-01-15T17:10:22;11.00;;;4.67;;
42886;SDS011;29032;56.028;92.904;2023-01-15T17:15:39;9.40;;;4.00;;
42886;SDS011;29032;56.028;92.904;2023-01-15T17:20:43;11.43;;;4.50;;
42886;SDS011;29032;56.028;92.904;2023-01-15T17:25:45;12.33;;;4.70;;
42886;SDS011;29032;56.028;92.904;2023-01-15T17:30:48;11.00;;;4.03;;
42886;SDS011;29032;56.028;92.904;2023-01-15T17:35:51;11.13;;;3.37;;
42886;SDS011;29032;56.028;92.904;2023-01-15T17:40:54;10.13;;;4.27;;
42886;SDS011;29032;56.028;92.904;2023-01-15T17:45:59;10.90;;;4.77;;
42886;SDS011;29032;56.028;92.904;2023-01-15T17:51:04;12.63;;;5.40;;
42886;SDS011;29032;56.028;92.904;2023-01-15T17:56:07;12.13;;;4.33;;
42886;SDS011;29032;56.028;92.904;2023-01-15T18:01:10;14.47;;;5.40;;
42886;SDS011;29032;56.028;92.904;2023-01-15T18:06:19;12.00;;;4.23;;
42886;SDS011;29032;56.028;92.904;2023-01-15T18:11:29;11.53;;;3.90;;
42886;SDS011;29032;56.028;92.904;2023-01-15T18:16:32;9.40;;;3.67;;
42886;SDS011;29032;56.028;92.904;2023-01-15T18:21:39;10.53;;;3.60;;
42886;SDS011;29032;56.028;92.904;2023-01-15T18:26:41;6.95;;;3.10;;
42886;SDS011;29032;56.028;92.904;2023-01-15T18:31:43;8.40;;;3.87;;
42886;SDS011;29032;56.028;92.904;2023-01-15T18:36:47;7.70;;;3.87;;
42886;SDS011;29032;56.028;92.904;2023-01-15T18:41:49;10.97;;;3.83;;
42886;SDS011;29032;56.028;92.904;2023-01-15T18:46:51;7.93;;;3.20;;
42886;SDS011;29032;56.028;92.904;2023-01-15T18:51:57;9.17;;;3.83;;
42886;SDS011;29032;56.028;92.904;2023-01-15T18:56:59;6.23;;;3.77;;
42886;SDS011;29032;56.028;92.904;2023-01-15T19:02:01;7.67;;;3.23;;
42886;SDS011;29032;56.028;92.904;2023-01-15T19:07:05;6.80;;;3.80;;
42886;SDS011;29032;56.028;92.904;2023-01-15T19:12:07;6.73;;;3.43;;
42886;SDS011;29032;56.028;92.904;2023-01-15T19:17:10;8.30;;;3.30;;
42886;SDS011;29032;56.028;92.904;2023-01-15T19:22:16;8.53;;;3.97;;
42886;SDS011;29032;56.028;92.904;2023-01-15T19:27:29;9.60;;;4.30;;
42886;SDS011;29032;56.028;92.904;2023-01-15T19:32:31;10.67;;;3.90;;
42886;SDS011;29032;56.028;92.904;2023-01-15T19:37:36;13.23;;;3.83;;
42886;SDS011;29032;56.028;92.904;2023-01-15T19:42:38;8.70;;;4.20;;
42886;SDS011;29032;56.028;92.904;2023-01-15T19:47:40;12.67;;;3.70;;
42886;SDS011;29032;56.028;92.904;2023-01-15T19:52:44;13.53;;;5.30;;
42886;SDS011;29032;56.028;92.904;2023-01-15T19:57:47;10.13;;;4.67;;
42886;SDS011;29032;56.028;92.904;2023-01-15T20:02:55;13.53;;;4.93;;
42886;SDS011;29032;56.028;92.904;2023-01-15T20:07:59;12.07;;;4.70;;
42886;SDS011;29032;56.028;92.904;2023-01-15T20:13:01;12.10;;;4.40;;
42886;SDS011;29032;56.028;92.904;2023-01-15T20:18:03;11.00;;;3.90;;
42886;SDS011;29032;56.028;92.904;2023-01-15T20:23:07;6.57;;;3.47;;
42886;SDS011;29032;56.028;92.904;2023-01-15T20:28:09;11.37;;;3.77;;
42886;SDS011;29032;56.028;92.904;2023-01-15T20:33:11;13.33;;;4.03;;
42886;SDS011;29032;56.028;92.904;2023-01-15T20:38:15;14.50;;;4.63;;
42886;SDS011;29032;56.028;92.904;2023-01-15T20:43:18;11.27;;;4.00;;
42886;SDS011;29032;56.028;92.904;2023-01-15T20:48:20;9.00;;;3.83;;
42886;SDS011;29032;56.028;92.904;2023-01-15T20:53:26;12.50;;;4.80;;
42886;SDS011;29032;56.028;92.904;2023-01-15T20:58:30;11.97;;;5.27;;
42886;SDS011;29032;56.028;92.904;2023-01-15T21:03:32;13.33;;;5.33;;
42886;SDS011;29032;56.028;92.904;2023-01-15T21:08:36;8.47;;;3.93;;
42886;SDS011;29032;56.028;92.904;2023-01-15T21:13:38;9.83;;;3.97;;
42886;SDS011;29032;56.028;92.904;2023-01-15T21:18:40;11.53;;;3.73;;
42886;SDS011;29032;56.028;92.904;2023-01-15T21:23:44;10.57;;;3.40;;
42886;SDS011;29032;56.028;92.904;2023-01-15T21:28:46;5.77;;;3.40;;
42886;SDS011;29032;56.028;92.904;2023-01-15T21:33:51;10.77;;;3.73;;
42886;SDS011;29032;56.028;92.904;2023-01-15T21:38:54;9.27;;;4.53;;
42886;SDS011;29032;56.028;92.904;2023-01-15T21:43:57;11.17;;;5.10;;
42886;SDS011;29032;56.028;92.904;2023-01-15T21:48:59;13.63;;;4.53;;
42886;SDS011;29032;56.028;92.904;2023-01-15T21:54:02;10.33;;;4.57;;
42886;SDS011;29032;56.028;92.904;2023-01-15T21:59:05;12.70;;;4.93;;
42886;SDS011;29032;56.028;92.904;2023-01-15T22:04:10;13.63;;;5.53;;
42886;SDS011;29032;56.028;92.904;2023-01-15T22:14:38;13.50;;;5.00;;
42886;SDS011;29032;56.028;92.904;2023-01-15T22:19:40;8.30;;;4.57;;
42886;SDS011;29032;56.028;92.904;2023-01-15T22:24:42;11.97;;;4.97;;
42886;SDS011;29032;56.028;92.904;2023-01-15T22:29:46;12.13;;;5.23;;
42886;SDS011;29032;56.028;92.904;2023-01-15T22:34:48;14.03;;;5.57;;
42886;SDS011;29032;56.028;92.904;2023-01-15T22:39:50;12.10;;;4.40;;
42886;SDS011;29032;56.028;92.904;2023-01-15T22:44:54;14.13;;;5.40;;
42886;SDS011;29032;56.028;92.904;2023-01-15T22:49:56;13.33;;;5.67;;
42886;SDS011;29032;56.028;92.904;2023-01-15T22:54:59;12.07;;;5.13;;
42886;SDS011;29032;56.028;92.904;2023-01-15T23:00:03;10.70;;;4.73;;
42886;SDS011;29032;56.028;92.904;2023-01-15T23:05:06;8.93;;;4.90;;
42886;SDS011;29032;56.028;92.904;2023-01-15T23:10:10;9.33;;;4.57;;
42886;SDS011;29032;56.028;92.904;2023-01-15T23:15:15;11.77;;;5.20;;
42886;SDS011;29032;56.028;92.904;2023-01-15T23:20:17;10.93;;;5.27;;
42886;SDS011;29032;56.028;92.904;2023-01-15T23:25:19;9.87;;;5.40;;
42886;SDS011;29032;56.028;92.904;2023-01-15T23:30:23;14.43;;;4.77;;
42886;SDS011;29032;56.028;92.904;2023-01-15T23:35:25;9.80;;;4.50;;
42886;SDS011;29032;56.028;92.904;2023-01-15T23:40:27;15.17;;;5.77;;
42886;SDS011;29032;56.028;92.904;2023-01-15T23:45:30;11.77;;;4.43;;
42886;SDS011;29032;56.028;92.904;2023-01-15T23:50:35;13.77;;;5.38;;
42886;SDS011;29032;56.028;92.904;2023-01-15T23:55:38;12.37;;;5.13;;
